Main page
METAR-TAF:

METAR-TAF

Airports :

RNAS Yeovilton (HMS Heron)

Yeovilton, England

latitude: 51-00N, longitude: 002-38W, elevation: 23 m

Current weather observation

The report was made 1 hour and 4 minutes ago, at 00:50 UTC
Wind 6 kt from the East/Northeast
Temperature 5°C
Humidity 100%
Pressure 1011 hPa
Visibility: 8000 m
mist

METAR: EGDY 200050Z AUTO 06006KT 8000 BR OVC008/// 05/05 Q1011 REDZ

Time: 01:54 (01:54 UTC)


TAF: missing

Weather observations and forecasts of more than 4000 airports (METAR and TAF reports).

The available stations are represented by yellow and red dots on the map.

Hover mouse over dot to see the name of the station.

Then click to see weather observations and forecasts.

To change the map : click on the green buttons with a black cross to zoom in, on the green button with a dash to zoom out, or on the green arrows for adjacent maps.


METAR-TAF: